createdAt,value
2018-07-03T00:00:32.776Z,60.50
2018-07-03T00:05:29.410Z,62.10
2018-07-03T00:07:57.671Z,61.50
2018-07-03T00:10:26.463Z,60.90
2018-07-03T00:12:54.704Z,61.00
2018-07-03T00:15:22.974Z,61.70
2018-07-03T00:17:51.219Z,61.70
2018-07-03T00:20:20.338Z,61.10
2018-07-03T00:25:16.636Z,60.30
2018-07-03T00:27:44.907Z,59.80
2018-07-03T00:30:13.187Z,59.40
2018-07-03T00:32:41.488Z,60.00
2018-07-03T00:35:09.839Z,59.90
2018-07-03T00:37:38.033Z,59.80
2018-07-03T00:40:07.006Z,59.80
2018-07-03T00:45:04.064Z,59.80
2018-07-03T00:47:32.871Z,59.90
2018-07-03T00:52:30.410Z,60.00
2018-07-03T00:54:58.629Z,60.60
2018-07-03T00:57:27.378Z,61.70
2018-07-03T01:00:07.039Z,64.10
2018-07-03T01:02:35.823Z,64.60
2018-07-03T01:05:04.494Z,64.70
2018-07-03T01:07:32.763Z,65.20
2018-07-03T01:10:00.970Z,65.60
2018-07-03T01:12:29.235Z,64.60
2018-07-03T01:14:57.418Z,64.80
2018-07-03T01:17:25.683Z,63.80
2018-07-03T01:19:54.082Z,63.90
2018-07-03T01:22:22.338Z,65.30
2018-07-03T01:24:50.523Z,64.50
2018-07-03T01:27:18.900Z,64.40
2018-07-03T01:29:47.201Z,64.70
2018-07-03T01:32:16.027Z,65.70
2018-07-03T01:34:44.307Z,65.90
2018-07-03T01:37:13.094Z,67.20
2018-07-03T01:39:41.335Z,66.00
2018-07-03T01:42:09.554Z,65.80
2018-07-03T01:44:38.913Z,66.00
2018-07-03T01:47:07.539Z,65.40
2018-07-03T01:49:36.126Z,66.00
2018-07-03T01:52:04.662Z,66.40
2018-07-03T01:57:00.920Z,67.00
2018-07-03T01:59:29.178Z,68.30
2018-07-03T02:01:57.762Z,68.70
2018-07-03T02:04:26.514Z,71.20
2018-07-03T02:06:54.782Z,69.80
2018-07-03T02:09:23.033Z,69.80
2018-07-03T02:11:51.766Z,69.90
2018-07-03T02:14:20.011Z,69.00
2018-07-03T02:16:48.855Z,69.10
2018-07-03T02:19:17.109Z,70.80
2018-07-03T02:21:45.309Z,69.20
2018-07-03T02:24:13.631Z,69.60
2018-07-03T02:29:10.186Z,70.10
2018-07-03T02:31:39.390Z,70.00
2018-07-03T02:34:07.595Z,70.10
2018-07-03T02:36:36.487Z,71.70
2018-07-03T02:41:34.604Z,71.40
2018-07-03T02:44:04.286Z,70.90
2018-07-03T02:46:33.141Z,70.70
2018-07-03T02:49:02.024Z,70.90
2018-07-03T02:51:34.573Z,71.70
2018-07-03T02:56:30.858Z,70.80
2018-07-03T02:58:59.131Z,71.70
2018-07-03T03:01:27.391Z,72.50
2018-07-03T03:03:56.123Z,73.60
2018-07-03T03:06:24.355Z,73.10
2018-07-03T03:08:52.606Z,72.70
2018-07-03T03:11:23.491Z,73.50
2018-07-03T03:16:21.374Z,73.90
2018-07-03T03:18:50.046Z,74.00
2018-07-03T03:21:18.345Z,73.60
2018-07-03T03:26:15.514Z,73.70
2018-07-03T03:28:43.783Z,73.70
2018-07-03T03:31:12.019Z,74.10
2018-07-03T03:33:40.202Z,73.80
2018-07-03T03:36:08.539Z,73.40
2018-07-03T03:41:04.838Z,74.70
2018-07-03T03:43:33.098Z,74.50
2018-07-03T03:46:02.027Z,73.70
2018-07-03T03:48:43.348Z,73.50
2018-07-03T03:53:39.755Z,75.30
2018-07-03T03:56:07.990Z,75.40
2018-07-03T04:01:04.255Z,75.60
2018-07-03T04:03:33.209Z,74.80
2018-07-03T04:06:01.947Z,75.20
2018-07-03T04:08:32.019Z,75.30
2018-07-03T04:11:00.247Z,76.20
2018-07-03T04:13:28.468Z,75.50
2018-07-03T04:15:56.704Z,76.00
2018-07-03T04:21:00.613Z,74.80
2018-07-03T04:23:28.843Z,73.50
2018-07-03T04:25:57.221Z,73.10
2018-07-03T04:28:25.566Z,72.50
2018-07-03T04:30:53.792Z,71.90
2018-07-03T04:33:22.098Z,72.50
2018-07-03T04:35:50.318Z,71.30
2018-07-03T04:38:18.719Z,71.90
2018-07-03T04:40:47.139Z,71.10
2018-07-03T04:43:15.399Z,70.30
2018-07-03T04:45:43.883Z,71.20
2018-07-03T04:48:12.463Z,70.70
2018-07-03T04:50:41.044Z,71.30
2018-07-03T04:53:09.703Z,71.30
2018-07-03T04:55:38.367Z,70.90
2018-07-03T04:58:06.608Z,71.30
2018-07-03T05:00:34.851Z,71.10
2018-07-03T05:03:03.552Z,70.50
2018-07-03T05:05:31.789Z,69.10
2018-07-03T05:08:00.472Z,69.00
2018-07-03T05:10:28.747Z,69.50
2018-07-03T05:12:56.975Z,68.70
2018-07-03T05:15:25.238Z,68.70
2018-07-03T05:17:53.487Z,68.80
2018-07-03T05:20:21.849Z,68.70
2018-07-03T05:22:50.066Z,68.70
2018-07-03T05:25:18.264Z,67.40
2018-07-03T05:27:46.471Z,67.00
2018-07-03T05:30:14.687Z,66.90
2018-07-03T05:32:42.985Z,66.30
2018-07-03T05:35:11.207Z,65.70
2018-07-03T05:40:07.451Z,65.30
2018-07-03T05:42:35.658Z,65.20
2018-07-03T05:52:30.778Z,61.20
2018-07-03T05:54:59.677Z,61.60
2018-07-03T05:57:28.074Z,61.10
2018-07-03T05:59:56.358Z,60.10
2018-07-03T06:02:25.346Z,60.20
2018-07-03T06:04:53.926Z,60.20
2018-07-03T06:07:22.174Z,58.40
2018-07-03T06:09:50.504Z,58.10
2018-07-03T06:12:19.147Z,59.10
2018-07-03T06:14:47.273Z,58.60
2018-07-03T06:17:15.606Z,57.80
2018-07-03T06:19:44.247Z,56.60
2018-07-03T06:22:12.570Z,57.70
2018-07-03T06:24:40.756Z,56.90
2018-07-03T06:27:09.117Z,56.70
2018-07-03T06:29:37.338Z,55.90
2018-07-03T06:32:05.574Z,55.80
2018-07-03T06:34:34.015Z,55.10
2018-07-03T06:37:02.230Z,54.30
2018-07-03T06:41:59.371Z,52.20
2018-07-03T06:44:28.287Z,51.70
2018-07-03T06:46:57.180Z,49.20
2018-07-03T06:49:36.295Z,47.70
2018-07-03T06:52:05.455Z,47.00
2018-07-03T06:54:38.994Z,44.90
2018-07-03T06:57:07.856Z,45.10
2018-07-03T06:59:36.174Z,42.10
2018-07-03T07:02:04.411Z,41.60
2018-07-03T07:04:33.071Z,40.40
2018-07-03T07:07:01.291Z,39.40
2018-07-03T07:09:30.086Z,40.40
2018-07-03T07:11:58.355Z,37.50
2018-07-03T07:14:26.591Z,35.80
2018-07-03T07:16:54.839Z,34.20
2018-07-03T07:19:23.078Z,34.50
2018-07-03T07:24:19.390Z,32.00
2018-07-03T07:26:48.074Z,31.20
2018-07-03T07:29:16.618Z,31.80
2018-07-03T07:31:44.846Z,29.80
2018-07-03T07:36:40.615Z,28.10
2018-07-03T07:39:10.854Z,27.70
2018-07-03T07:41:39.227Z,27.50
2018-07-03T07:44:08.882Z,28.20
2018-07-03T07:46:37.842Z,27.50
2018-07-03T07:51:35.263Z,27.10
2018-07-03T07:54:03.483Z,26.70
2018-07-03T07:56:31.741Z,26.10
2018-07-03T07:59:00.014Z,26.70
2018-07-03T08:01:28.290Z,27.40
2018-07-03T08:03:56.897Z,26.60
2018-07-03T08:06:25.150Z,26.00
2018-07-03T08:08:53.404Z,26.20
2018-07-03T08:13:49.698Z,25.40
2018-07-03T08:16:18.118Z,25.50
2018-07-03T08:18:46.318Z,24.70
2018-07-03T08:21:14.507Z,24.80
2018-07-03T08:26:11.402Z,24.40
2018-07-03T08:28:40.067Z,23.40
2018-07-03T08:33:36.225Z,22.80
2018-07-03T08:38:32.556Z,22.70
2018-07-03T08:41:01.395Z,23.00
2018-07-03T08:43:29.607Z,21.90
2018-07-03T08:45:58.291Z,21.70
2018-07-03T08:48:27.229Z,22.80
2018-07-03T08:50:55.875Z,22.70
2018-07-03T08:53:24.669Z,21.90
2018-07-03T08:55:52.863Z,21.60
2018-07-03T08:58:21.086Z,22.20
2018-07-03T09:03:20.514Z,22.70
2018-07-03T09:05:48.686Z,21.30
2018-07-03T09:08:17.246Z,22.00
2018-07-03T09:10:45.547Z,21.40
2018-07-03T09:13:14.713Z,21.00
2018-07-03T09:15:43.902Z,20.60
2018-07-03T09:18:12.167Z,20.70
2018-07-03T09:20:40.992Z,20.90
2018-07-03T09:23:09.675Z,19.90
2018-07-03T09:25:38.950Z,20.00
2018-07-03T09:28:07.306Z,19.40
2018-07-03T09:30:35.753Z,20.00
2018-07-03T09:33:04.234Z,19.30
2018-07-03T09:35:32.411Z,19.40
2018-07-03T09:38:00.683Z,17.80
2018-07-03T09:40:28.939Z,16.40
2018-07-03T09:42:57.222Z,17.90
2018-07-03T09:45:25.855Z,16.60
2018-07-03T09:47:54.555Z,16.80
2018-07-03T09:50:32.274Z,17.30
2018-07-03T09:53:00.859Z,17.80
2018-07-03T09:57:57.089Z,17.60
2018-07-03T10:00:30.763Z,17.50
2018-07-03T10:03:00.029Z,17.60
2018-07-03T10:05:28.256Z,17.80
2018-07-03T10:08:03.242Z,18.40
2018-07-03T10:10:31.514Z,17.40
2018-07-03T10:12:59.824Z,16.50
2018-07-03T10:15:28.051Z,16.30
2018-07-03T10:17:56.302Z,18.00
2018-07-03T10:20:24.612Z,17.70
2018-07-03T10:22:53.503Z,16.00
2018-07-03T10:25:22.387Z,17.40
2018-07-03T10:27:50.578Z,16.70
2018-07-03T10:30:18.775Z,17.60
2018-07-03T10:32:53.019Z,16.60
2018-07-03T10:35:21.501Z,18.40
2018-07-03T10:37:49.710Z,16.90
2018-07-03T10:40:17.902Z,16.20
2018-07-03T10:42:46.134Z,16.70
2018-07-03T10:47:43.646Z,17.20
2018-07-03T10:50:11.986Z,16.60
2018-07-03T10:52:40.682Z,15.70
2018-07-03T10:55:08.959Z,16.20
2018-07-03T10:57:37.236Z,16.50
2018-07-03T11:00:06.431Z,16.20
2018-07-03T11:02:35.338Z,17.50
2018-07-03T11:07:31.567Z,16.90
2018-07-03T11:09:59.850Z,17.50
2018-07-03T11:12:28.124Z,17.60
2018-07-03T11:14:57.019Z,17.00
2018-07-03T11:17:25.271Z,17.60
2018-07-03T11:19:53.646Z,16.70
2018-07-03T11:22:22.321Z,17.60
2018-07-03T11:24:50.493Z,17.60
2018-07-03T11:29:46.773Z,15.90
2018-07-03T11:34:43.015Z,16.50
2018-07-03T11:42:07.279Z,15.40
2018-07-03T11:44:36.630Z,16.30
2018-07-03T11:47:05.407Z,16.00
2018-07-03T11:49:34.426Z,17.00
2018-07-03T11:52:03.223Z,15.70
2018-07-03T11:54:31.700Z,16.30
2018-07-03T11:57:00.005Z,16.80
2018-07-03T12:01:56.628Z,15.30
2018-07-03T12:04:25.519Z,14.20
2018-07-03T12:06:53.779Z,15.50
2018-07-03T12:09:22.058Z,14.30
2018-07-03T12:11:50.379Z,15.50
2018-07-03T12:14:22.623Z,14.90
2018-07-03T12:16:50.835Z,15.10
2018-07-03T12:19:19.078Z,15.10
2018-07-03T12:21:47.329Z,15.20
2018-07-03T12:24:15.537Z,14.40
2018-07-03T12:26:44.138Z,14.50
2018-07-03T12:29:12.619Z,15.90
2018-07-03T12:31:40.747Z,15.60
2018-07-03T12:34:08.977Z,16.00
2018-07-03T12:36:37.195Z,16.30
2018-07-03T12:39:08.186Z,16.00
2018-07-03T12:41:36.413Z,16.10
2018-07-03T12:44:05.332Z,15.90
2018-07-03T12:46:34.113Z,15.90
2018-07-03T12:49:02.343Z,16.00
2018-07-03T12:51:34.830Z,15.80
2018-07-03T12:54:03.092Z,16.20
2018-07-03T12:56:32.406Z,16.00
2018-07-03T12:59:00.655Z,17.20
2018-07-03T13:01:28.897Z,16.50
2018-07-03T13:03:57.715Z,19.50
2018-07-03T13:08:54.603Z,20.00
2018-07-03T13:14:13.541Z,19.60
2018-07-03T13:16:41.747Z,21.50
2018-07-03T13:19:09.983Z,21.50
2018-07-03T13:21:38.472Z,22.60
2018-07-03T13:24:06.767Z,23.60
2018-07-03T13:26:35.050Z,24.40
2018-07-03T13:29:04.862Z,23.40
2018-07-03T13:31:33.588Z,24.30
2018-07-03T13:34:01.841Z,23.90
2018-07-03T13:38:58.164Z,24.90
2018-07-03T13:41:26.697Z,26.10
2018-07-03T13:43:59.531Z,26.50
2018-07-03T13:46:29.143Z,25.30
2018-07-03T13:48:57.363Z,26.50
2018-07-03T13:53:59.866Z,24.90
2018-07-03T13:58:56.534Z,27.50
2018-07-03T14:01:24.806Z,25.40
2018-07-03T14:06:21.961Z,25.60
2018-07-03T14:08:50.271Z,26.90
2018-07-03T14:11:18.542Z,27.10
2018-07-03T14:13:46.818Z,25.90
2018-07-03T14:16:15.402Z,27.40
2018-07-03T14:18:44.702Z,26.90
2018-07-03T14:21:12.976Z,27.20
2018-07-03T14:23:41.419Z,26.80
2018-07-03T14:26:10.571Z,27.30
2018-07-03T14:28:38.799Z,27.10
2018-07-03T14:31:07.105Z,27.50
2018-07-03T14:33:35.383Z,26.80
2018-07-03T14:36:03.658Z,26.50
2018-07-03T14:38:31.943Z,26.70
2018-07-03T14:41:00.323Z,25.80
2018-07-03T14:43:34.022Z,26.90
2018-07-03T14:46:03.069Z,26.30
2018-07-03T14:48:31.942Z,26.10
2018-07-03T14:51:00.682Z,26.20
2018-07-03T14:58:26.113Z,27.50
2018-07-03T15:00:54.414Z,27.80
2018-07-03T15:03:23.280Z,27.80
2018-07-03T15:05:51.566Z,28.50
2018-07-03T15:08:19.831Z,27.80
2018-07-03T15:10:48.122Z,28.40
2018-07-03T15:13:16.390Z,28.30
2018-07-03T15:15:45.506Z,28.10
2018-07-03T15:18:13.850Z,28.60
2018-07-03T15:20:42.218Z,28.70
2018-07-03T15:23:10.712Z,28.50
2018-07-03T15:25:39.098Z,29.20
2018-07-03T15:30:36.235Z,29.30
2018-07-03T15:35:32.539Z,29.00
2018-07-03T15:38:01.308Z,29.80
2018-07-03T15:40:29.636Z,29.50
2018-07-03T15:42:58.962Z,29.70
2018-07-03T15:52:53.223Z,29.90
2018-07-03T15:55:21.458Z,29.20
2018-07-03T15:57:49.664Z,30.40
2018-07-03T16:00:18.311Z,29.70
2018-07-03T16:02:57.642Z,29.30
2018-07-03T16:05:37.328Z,29.50
2018-07-03T16:09:17.564Z,30.00
2018-07-03T16:11:45.778Z,29.60
2018-07-03T16:14:14.203Z,29.50
2018-07-03T16:16:42.922Z,29.40
2018-07-03T16:19:17.258Z,29.50
2018-07-03T16:21:45.850Z,29.10
2018-07-03T16:24:14.158Z,29.20
2018-07-03T16:26:42.758Z,29.60
2018-07-03T16:29:12.326Z,29.40
2018-07-03T16:31:41.099Z,29.50
2018-07-03T16:36:37.354Z,30.00
2018-07-03T16:39:10.197Z,29.70
2018-07-03T16:41:38.968Z,29.50
2018-07-03T16:44:08.262Z,30.20
2018-07-03T16:51:35.495Z,30.80
2018-07-03T16:54:04.306Z,31.00
2018-07-03T16:56:33.136Z,30.50
2018-07-03T16:59:02.397Z,30.90
2018-07-03T17:01:30.822Z,30.40
2018-07-03T17:03:59.584Z,30.50
2018-07-03T17:06:28.094Z,31.10
2018-07-03T17:08:56.719Z,31.50
2018-07-03T17:11:25.997Z,31.50
2018-07-03T17:13:54.816Z,31.50
2018-07-03T17:16:23.486Z,31.50
2018-07-03T17:18:58.399Z,32.00
2018-07-03T17:21:26.693Z,31.70
2018-07-03T17:23:57.217Z,31.00
2018-07-03T17:26:25.963Z,31.90
2018-07-03T17:28:54.858Z,34.20
2018-07-03T17:31:23.396Z,31.90
2018-07-03T17:33:53.419Z,31.50
2018-07-03T17:36:21.829Z,31.90
2018-07-03T17:38:50.595Z,34.80
2018-07-03T17:44:06.326Z,31.70
2018-07-03T17:46:36.155Z,33.50
2018-07-03T17:49:04.901Z,32.40
2018-07-03T17:51:37.718Z,32.50
2018-07-03T17:54:07.562Z,33.10
2018-07-03T17:56:35.909Z,34.10
2018-07-03T17:59:06.380Z,34.20
2018-07-03T18:01:35.062Z,36.90
2018-07-03T18:04:04.032Z,35.70
2018-07-03T18:06:32.727Z,34.80
2018-07-03T18:11:39.986Z,34.20
2018-07-03T18:16:37.649Z,34.10
2018-07-03T18:19:13.474Z,35.00
2018-07-03T18:21:42.281Z,34.40
2018-07-03T18:24:10.904Z,34.80
2018-07-03T18:26:41.018Z,36.10
2018-07-03T18:29:10.790Z,35.00
2018-07-03T18:31:41.166Z,35.60
2018-07-03T18:34:09.826Z,36.40
2018-07-03T18:36:38.046Z,35.50
2018-07-03T18:39:08.057Z,36.20
2018-07-03T18:41:42.776Z,36.00
2018-07-03T18:44:11.265Z,36.10
2018-07-03T18:46:39.988Z,36.20
2018-07-03T18:49:08.188Z,37.70
2018-07-03T18:51:36.907Z,37.80
2018-07-03T18:54:05.151Z,38.40
2018-07-03T18:56:33.402Z,37.70
2018-07-03T18:59:01.745Z,36.90
2018-07-03T19:01:29.958Z,37.10
2018-07-03T19:03:59.046Z,37.60
2018-07-03T19:06:27.258Z,37.60
2018-07-03T19:13:51.703Z,38.30
2018-07-03T19:16:20.051Z,40.80
2018-07-03T19:18:48.327Z,38.20
2018-07-03T19:21:16.544Z,41.00
2018-07-03T19:23:44.822Z,39.20
2018-07-03T19:31:09.671Z,42.90
2018-07-03T19:36:06.409Z,41.90
2018-07-03T19:38:34.566Z,41.00
2018-07-03T19:41:02.839Z,41.50
2018-07-03T19:43:33.434Z,43.00
2018-07-03T19:48:31.052Z,43.70
2018-07-03T19:50:59.299Z,42.70
2018-07-03T19:53:27.867Z,43.40
2018-07-03T19:55:57.420Z,44.20
2018-07-03T19:58:25.909Z,43.90
2018-07-03T20:00:56.022Z,44.30
2018-07-03T20:03:24.702Z,44.10
2018-07-03T20:05:52.915Z,45.10
2018-07-03T20:08:21.130Z,44.80
2018-07-03T20:10:49.375Z,45.10
2018-07-03T20:13:18.315Z,46.20
2018-07-03T20:18:17.203Z,46.60
2018-07-03T20:20:46.620Z,46.40
2018-07-03T20:23:14.842Z,46.50
2018-07-03T20:25:43.148Z,47.60
2018-07-03T20:28:11.626Z,46.90
2018-07-03T20:30:40.474Z,47.40
2018-07-03T20:33:09.078Z,47.80
2018-07-03T20:35:37.303Z,48.70
2018-07-03T20:38:06.689Z,47.80
2018-07-03T20:40:59.899Z,48.40
2018-07-03T20:43:29.839Z,48.90
2018-07-03T20:45:58.499Z,50.50
2018-07-03T20:48:27.574Z,48.90
2018-07-03T20:50:56.651Z,49.80
2018-07-03T20:53:25.883Z,49.90
2018-07-03T20:55:54.432Z,50.00
2018-07-03T20:58:23.612Z,49.70
2018-07-03T21:00:57.568Z,50.20
2018-07-03T21:03:26.220Z,49.80
2018-07-03T21:05:54.632Z,50.20
2018-07-03T21:13:20.304Z,51.00
2018-07-03T21:15:48.523Z,51.00
2018-07-03T21:20:45.450Z,51.90
2018-07-03T21:23:13.641Z,52.00
2018-07-03T21:25:42.221Z,52.40
2018-07-03T21:28:10.387Z,52.30
2018-07-03T21:30:38.576Z,53.20
2018-07-03T21:33:06.827Z,52.90
2018-07-03T21:35:35.043Z,54.10
2018-07-03T21:38:03.326Z,54.20
2018-07-03T21:40:31.554Z,53.80
2018-07-03T21:45:28.548Z,54.80
2018-07-03T21:47:57.040Z,54.60
2018-07-03T21:50:25.854Z,54.30
2018-07-03T21:52:54.206Z,54.30
2018-07-03T21:55:22.403Z,54.00
2018-07-03T21:57:50.590Z,56.00
2018-07-03T22:00:24.868Z,56.10
2018-07-03T22:02:53.019Z,55.60
2018-07-03T22:05:21.594Z,56.20
2018-07-03T22:07:50.224Z,57.00
2018-07-03T22:10:18.413Z,56.60
2018-07-03T22:12:47.152Z,56.50
2018-07-03T22:15:15.355Z,57.00
2018-07-03T22:17:43.940Z,57.60
2018-07-03T22:20:14.803Z,57.60
2018-07-03T22:22:42.983Z,58.30
2018-07-03T22:25:11.350Z,58.40
2018-07-03T22:30:07.757Z,58.40
2018-07-03T22:32:36.663Z,57.80
2018-07-03T22:35:04.860Z,59.30
2018-07-03T22:37:33.074Z,59.00
2018-07-03T22:40:01.300Z,59.10
2018-07-03T22:42:30.069Z,59.80
2018-07-03T22:44:58.433Z,60.10
2018-07-03T22:47:27.052Z,59.60
2018-07-03T22:49:55.283Z,59.70
2018-07-03T22:52:24.075Z,60.50
2018-07-03T22:54:52.658Z,59.80
2018-07-03T22:57:21.524Z,60.50
2018-07-03T22:59:49.723Z,60.00
2018-07-03T23:02:17.943Z,60.90
2018-07-03T23:04:46.295Z,61.30
2018-07-03T23:07:14.483Z,62.70
2018-07-03T23:09:42.722Z,62.20
2018-07-03T23:12:15.623Z,62.20
2018-07-03T23:14:43.910Z,62.60
2018-07-03T23:17:12.779Z,62.70
2018-07-03T23:19:40.958Z,63.80
2018-07-03T23:22:09.413Z,63.40
2018-07-03T23:24:37.604Z,63.90
2018-07-03T23:27:06.098Z,62.70
2018-07-03T23:29:34.326Z,63.90
2018-07-03T23:32:02.523Z,63.90
2018-07-03T23:34:30.778Z,63.30
2018-07-03T23:36:58.995Z,64.20
2018-07-03T23:39:27.278Z,63.50
2018-07-03T23:41:55.984Z,63.90
2018-07-03T23:44:24.510Z,64.70
2018-07-03T23:47:04.345Z,66.20
2018-07-03T23:49:43.996Z,65.50
2018-07-03T23:52:24.088Z,66.70
2018-07-03T23:55:03.551Z,64.70
2018-07-03T23:57:43.059Z,65.30
